DLH067 EDDC-EDDF
Flight info
| Callsign | DLH067 |
|---|---|
| Flight time | 0h 40m |
| Altitude | 38000 |
| Route | ABKIS Z715 NURGO T170 VAGAB/N0428F240 T170 GAPLA T178 KERAX |
| Aircraft | A319/M-SDE3FGHIRWY/LB1 |
Departure
| Time | 2026-04-16 22:04 |
|---|---|
| Airport | Dresden Airport (EDDC) |
Arrival
| Time | 2026-04-16 22:44 |
|---|---|
| Airport | Frankfurt Main Airport (EDDF) |
| Time | Latitude | Longitude | Altitude | Speed | Heading |
|---|---|---|---|---|---|
| 2026-04-16 21:43 | 51.12621 | 13.76534 | 751 ft | 0 kts | 221° |
| 2026-04-16 21:54 | 51.12635 | 13.76553 | 746 ft | 4 kts | 222° |
| 2026-04-16 21:55 | 51.12654 | 13.76583 | 746 ft | 4 kts | 231° |
| 2026-04-16 21:55 | 51.12666 | 13.76617 | 747 ft | 4 kts | 269° |
| 2026-04-16 21:55 | 51.12664 | 13.76636 | 748 ft | 0 kts | 312° |
| 2026-04-16 21:57 | 51.12676 | 13.76614 | 750 ft | 7 kts | 310° |
| 2026-04-16 21:57 | 51.12725 | 13.76521 | 750 ft | 14 kts | 309° |
| 2026-04-16 21:57 | 51.12799 | 13.76413 | 748 ft | 13 kts | 353° |
| 2026-04-16 21:58 | 51.12877 | 13.76511 | 750 ft | 17 kts | 40° |
| 2026-04-16 21:58 | 51.12980 | 13.76653 | 750 ft | 23 kts | 40° |
| 2026-04-16 21:58 | 51.13115 | 13.76839 | 748 ft | 29 kts | 40° |
| 2026-04-16 21:58 | 51.13282 | 13.77066 | 750 ft | 34 kts | 41° |
| 2026-04-16 21:59 | 51.13472 | 13.77325 | 748 ft | 36 kts | 40° |
| 2026-04-16 21:59 | 51.13663 | 13.77589 | 751 ft | 36 kts | 41° |
| 2026-04-16 21:59 | 51.13825 | 13.77815 | 748 ft | 20 kts | 40° |
| 2026-04-16 21:59 | 51.13933 | 13.77965 | 750 ft | 20 kts | 40° |
| 2026-04-16 22:00 | 51.14014 | 13.78077 | 748 ft | 13 kts | 40° |
| 2026-04-16 22:00 | 51.14076 | 13.78162 | 749 ft | 10 kts | 41° |
| 2026-04-16 22:00 | 51.14125 | 13.78230 | 750 ft | 10 kts | 40° |
| 2026-04-16 22:00 | 51.14185 | 13.78311 | 748 ft | 13 kts | 40° |
| 2026-04-16 22:01 | 51.14248 | 13.78367 | 749 ft | 7 kts | 356° |
| 2026-04-16 22:01 | 51.14279 | 13.78335 | 748 ft | 0 kts | 308° |
| 2026-04-16 22:02 | 51.14296 | 13.78299 | 750 ft | 9 kts | 308° |
| 2026-04-16 22:02 | 51.14353 | 13.78197 | 749 ft | 13 kts | 312° |
| 2026-04-16 22:02 | 51.14382 | 13.78100 | 752 ft | 9 kts | 227° |
| 2026-04-16 22:03 | 51.14359 | 13.78072 | 751 ft | 0 kts | 222° |
| 2026-04-16 22:04 | 51.14345 | 13.78051 | 752 ft | 13 kts | 222° |
| 2026-04-16 22:04 | 51.14067 | 13.77671 | 750 ft | 94 kts | 220° |
| 2026-04-16 22:04 | 51.13386 | 13.76732 | 789 ft | 156 kts | 222° |
| 2026-04-16 22:04 | 51.12588 | 13.75559 | 1529 ft | 156 kts | 225° |
| 2026-04-16 22:05 | 51.11797 | 13.74353 | 2176 ft | 167 kts | 225° |
| 2026-04-16 22:05 | 51.10891 | 13.73023 | 2669 ft | 188 kts | 224° |
| 2026-04-16 22:05 | 51.09857 | 13.71546 | 3115 ft | 211 kts | 223° |
| 2026-04-16 22:05 | 51.08688 | 13.69893 | 3602 ft | 237 kts | 223° |
| 2026-04-16 22:06 | 51.07406 | 13.68089 | 4307 ft | 257 kts | 223° |
| 2026-04-16 22:06 | 51.04636 | 13.64213 | 6349 ft | 266 kts | 224° |
| 2026-04-16 22:06 | 51.03354 | 13.62089 | 7403 ft | 267 kts | 239° |
| 2026-04-16 22:07 | 51.02605 | 13.59405 | 8413 ft | 268 kts | 261° |
| 2026-04-16 22:07 | 51.02534 | 13.56471 | 9444 ft | 270 kts | 272° |
| 2026-04-16 22:07 | 51.02503 | 13.53467 | 10446 ft | 275 kts | 267° |
| 2026-04-16 22:07 | 51.02249 | 13.50302 | 10902 ft | 300 kts | 262° |
| 2026-04-16 22:08 | 51.01833 | 13.46911 | 11269 ft | 325 kts | 259° |
| 2026-04-16 22:08 | 51.01338 | 13.43322 | 11679 ft | 344 kts | 259° |
| 2026-04-16 22:08 | 51.00812 | 13.39558 | 12428 ft | 351 kts | 259° |
| 2026-04-16 22:08 | 51.00294 | 13.35738 | 13264 ft | 355 kts | 260° |
| 2026-04-16 22:09 | 50.99798 | 13.31911 | 14081 ft | 360 kts | 260° |
| 2026-04-16 22:09 | 50.99305 | 13.27981 | 14793 ft | 364 kts | 261° |
| 2026-04-16 22:09 | 50.98814 | 13.24012 | 15549 ft | 368 kts | 261° |
| 2026-04-16 22:09 | 50.98321 | 13.20002 | 16292 ft | 371 kts | 262° |
| 2026-04-16 22:10 | 50.97832 | 13.16016 | 17029 ft | 374 kts | 262° |
| 2026-04-16 22:10 | 50.97331 | 13.11937 | 17778 ft | 377 kts | 262° |
| 2026-04-16 22:10 | 50.96825 | 13.07829 | 18514 ft | 381 kts | 262° |
| 2026-04-16 22:10 | 50.96308 | 13.03672 | 19163 ft | 384 kts | 262° |
| 2026-04-16 22:11 | 50.95783 | 12.99499 | 19804 ft | 386 kts | 262° |
| 2026-04-16 22:11 | 50.95253 | 12.95298 | 20428 ft | 389 kts | 262° |
| 2026-04-16 22:11 | 50.94727 | 12.91137 | 21034 ft | 391 kts | 262° |
| 2026-04-16 22:11 | 50.94189 | 12.86890 | 21632 ft | 394 kts | 262° |
| 2026-04-16 22:12 | 50.93644 | 12.82608 | 22215 ft | 396 kts | 262° |
| 2026-04-16 22:12 | 50.93092 | 12.78286 | 22773 ft | 399 kts | 263° |
| 2026-04-16 22:12 | 50.92539 | 12.73953 | 23334 ft | 402 kts | 263° |
| 2026-04-16 22:12 | 50.91983 | 12.69594 | 23871 ft | 404 kts | 263° |
| 2026-04-16 22:13 | 50.91430 | 12.65268 | 24324 ft | 407 kts | 263° |
| 2026-04-16 22:13 | 50.90862 | 12.60855 | 24789 ft | 409 kts | 263° |
| 2026-04-16 22:13 | 50.90289 | 12.56425 | 25255 ft | 410 kts | 263° |
| 2026-04-16 22:13 | 50.89717 | 12.52034 | 25685 ft | 412 kts | 263° |
| 2026-04-16 22:14 | 50.89132 | 12.47556 | 26125 ft | 414 kts | 263° |
| 2026-04-16 22:14 | 50.88545 | 12.43060 | 26566 ft | 416 kts | 263° |
| 2026-04-16 22:14 | 50.87954 | 12.38546 | 26994 ft | 418 kts | 263° |
| 2026-04-16 22:14 | 50.87363 | 12.34020 | 27415 ft | 420 kts | 263° |
| 2026-04-16 22:15 | 50.86775 | 12.29532 | 27806 ft | 422 kts | 263° |
| 2026-04-16 22:15 | 50.86170 | 12.24956 | 28159 ft | 425 kts | 263° |
| 2026-04-16 22:15 | 50.84947 | 12.15792 | 28247 ft | 424 kts | 263° |
| 2026-04-16 22:16 | 50.83721 | 12.06703 | 28253 ft | 424 kts | 263° |
| 2026-04-16 22:16 | 50.82484 | 11.97551 | 28252 ft | 424 kts | 263° |
| 2026-04-16 22:17 | 50.81259 | 11.88472 | 28256 ft | 424 kts | 263° |
| 2026-04-16 22:17 | 50.80014 | 11.79338 | 28255 ft | 424 kts | 263° |
| 2026-04-16 22:18 | 50.78754 | 11.70209 | 28255 ft | 425 kts | 262° |
| 2026-04-16 22:18 | 50.77500 | 11.61133 | 28255 ft | 425 kts | 262° |
| 2026-04-16 22:19 | 50.76237 | 11.51994 | 28244 ft | 425 kts | 262° |
| 2026-04-16 22:19 | 50.74966 | 11.42840 | 28261 ft | 426 kts | 262° |
| 2026-04-16 22:20 | 50.73692 | 11.33763 | 28257 ft | 426 kts | 262° |
| 2026-04-16 22:20 | 50.72390 | 11.24626 | 28257 ft | 426 kts | 262° |
| 2026-04-16 22:21 | 50.71091 | 11.15506 | 28258 ft | 426 kts | 262° |
| 2026-04-16 22:21 | 50.69787 | 11.06393 | 28257 ft | 426 kts | 262° |
| 2026-04-16 22:22 | 50.68472 | 10.97272 | 28257 ft | 426 kts | 262° |
| 2026-04-16 22:22 | 50.67159 | 10.88205 | 28258 ft | 426 kts | 262° |
| 2026-04-16 22:23 | 50.65828 | 10.79095 | 28263 ft | 426 kts | 262° |
| 2026-04-16 22:23 | 50.64719 | 10.71532 | 28261 ft | 425 kts | 262° |
| 2026-04-16 22:24 | 50.63382 | 10.62442 | 28274 ft | 425 kts | 261° |
| 2026-04-16 22:24 | 50.62036 | 10.53351 | 28260 ft | 425 kts | 261° |
| 2026-04-16 22:25 | 50.60694 | 10.44326 | 28263 ft | 425 kts | 261° |
| 2026-04-16 22:25 | 50.59328 | 10.35253 | 28257 ft | 425 kts | 261° |
| 2026-04-16 22:26 | 50.57955 | 10.26184 | 28257 ft | 425 kts | 261° |
| 2026-04-16 22:26 | 50.56586 | 10.17136 | 28256 ft | 424 kts | 261° |
| 2026-04-16 22:27 | 50.55218 | 10.08157 | 28269 ft | 425 kts | 261° |
| 2026-04-16 22:27 | 50.53830 | 9.99109 | 28252 ft | 425 kts | 261° |
| 2026-04-16 22:28 | 50.52449 | 9.90135 | 28252 ft | 425 kts | 261° |
| 2026-04-16 22:28 | 50.51750 | 9.85630 | 27387 ft | 425 kts | 260° |
| 2026-04-16 22:28 | 50.51040 | 9.81062 | 25871 ft | 434 kts | 260° |
| 2026-04-16 22:29 | 50.50317 | 9.76400 | 24436 ft | 442 kts | 259° |
| 2026-04-16 22:29 | 50.49590 | 9.71725 | 23407 ft | 438 kts | 259° |
| 2026-04-16 22:29 | 50.48869 | 9.67080 | 22355 ft | 434 kts | 259° |
| 2026-04-16 22:29 | 50.48166 | 9.62545 | 21417 ft | 429 kts | 258° |
| 2026-04-16 22:30 | 50.47463 | 9.58015 | 20506 ft | 425 kts | 258° |
| 2026-04-16 22:30 | 50.46717 | 9.53557 | 19657 ft | 421 kts | 257° |
| 2026-04-16 22:30 | 50.45905 | 9.49146 | 18841 ft | 417 kts | 256° |
| 2026-04-16 22:30 | 50.45062 | 9.44814 | 17984 ft | 413 kts | 255° |
| 2026-04-16 22:31 | 50.44208 | 9.40515 | 17126 ft | 409 kts | 255° |
| 2026-04-16 22:31 | 50.43381 | 9.36323 | 16334 ft | 405 kts | 255° |
| 2026-04-16 22:31 | 50.42560 | 9.32108 | 15591 ft | 402 kts | 255° |
| 2026-04-16 22:31 | 50.41753 | 9.27916 | 14877 ft | 399 kts | 255° |
| 2026-04-16 22:32 | 50.40948 | 9.23756 | 14193 ft | 396 kts | 254° |
| 2026-04-16 22:32 | 50.40074 | 9.19669 | 13465 ft | 393 kts | 252° |
| 2026-04-16 22:32 | 50.39158 | 9.15712 | 12786 ft | 388 kts | 250° |
| 2026-04-16 22:32 | 50.38213 | 9.11773 | 12071 ft | 383 kts | 250° |
| 2026-04-16 22:33 | 50.37273 | 9.07880 | 11336 ft | 379 kts | 250° |
| 2026-04-16 22:33 | 50.36351 | 9.04031 | 10673 ft | 373 kts | 249° |
| 2026-04-16 22:33 | 50.35479 | 9.00346 | 10411 ft | 355 kts | 250° |
| 2026-04-16 22:33 | 50.34657 | 8.96836 | 10407 ft | 332 kts | 250° |
| 2026-04-16 22:34 | 50.33861 | 8.93560 | 10408 ft | 311 kts | 245° |
| 2026-04-16 22:34 | 50.32764 | 8.90760 | 10372 ft | 294 kts | 231° |
| 2026-04-16 22:34 | 50.31347 | 8.88567 | 10238 ft | 283 kts | 218° |
| 2026-04-16 22:34 | 50.29685 | 8.86976 | 9920 ft | 279 kts | 205° |
| 2026-04-16 22:35 | 50.27844 | 8.86045 | 9526 ft | 278 kts | 191° |
| 2026-04-16 22:35 | 50.25908 | 8.85947 | 9093 ft | 279 kts | 174° |
| 2026-04-16 22:35 | 50.24059 | 8.86729 | 8667 ft | 280 kts | 157° |
| 2026-04-16 22:35 | 50.22559 | 8.88631 | 8249 ft | 282 kts | 125° |
| 2026-04-16 22:36 | 50.21970 | 8.91511 | 7826 ft | 282 kts | 90° |
| 2026-04-16 22:36 | 50.22222 | 8.94546 | 7373 ft | 282 kts | 82° |
| 2026-04-16 22:36 | 50.22091 | 8.97564 | 6947 ft | 280 kts | 108° |
| 2026-04-16 22:36 | 50.21108 | 9.00122 | 6526 ft | 275 kts | 136° |
| 2026-04-16 22:37 | 50.19530 | 9.01655 | 6089 ft | 271 kts | 160° |
| 2026-04-16 22:37 | 50.17751 | 9.02613 | 5626 ft | 270 kts | 163° |
| 2026-04-16 22:37 | 50.15916 | 9.03119 | 5143 ft | 268 kts | 182° |
| 2026-04-16 22:37 | 50.14115 | 9.02496 | 4642 ft | 266 kts | 206° |
| 2026-04-16 22:38 | 50.12706 | 9.00696 | 4192 ft | 263 kts | 236° |
| 2026-04-16 22:38 | 50.12133 | 8.98048 | 3850 ft | 260 kts | 265° |
| 2026-04-16 22:38 | 50.12057 | 8.95331 | 3933 ft | 239 kts | 265° |
| 2026-04-16 22:38 | 50.11895 | 8.92892 | 3982 ft | 220 kts | 260° |
| 2026-04-16 22:39 | 50.11539 | 8.90662 | 3998 ft | 205 kts | 252° |
| 2026-04-16 22:39 | 50.11076 | 8.88572 | 4002 ft | 204 kts | 250° |
| 2026-04-16 22:39 | 50.10597 | 8.86519 | 3995 ft | 195 kts | 250° |
| 2026-04-16 22:39 | 50.10143 | 8.84590 | 3834 ft | 187 kts | 249° |
| 2026-04-16 22:40 | 50.09707 | 8.82737 | 3599 ft | 183 kts | 249° |
| 2026-04-16 22:40 | 50.09272 | 8.80892 | 3366 ft | 180 kts | 249° |
| 2026-04-16 22:40 | 50.08841 | 8.79067 | 3130 ft | 178 kts | 249° |
| 2026-04-16 22:40 | 50.08415 | 8.77262 | 2889 ft | 177 kts | 249° |
| 2026-04-16 22:41 | 50.07993 | 8.75474 | 2660 ft | 174 kts | 249° |
| 2026-04-16 22:41 | 50.07593 | 8.73779 | 2441 ft | 160 kts | 249° |
| 2026-04-16 22:41 | 50.07230 | 8.72248 | 2228 ft | 142 kts | 249° |
| 2026-04-16 22:41 | 50.06900 | 8.70852 | 2041 ft | 135 kts | 249° |
| 2026-04-16 22:42 | 50.06579 | 8.69495 | 1867 ft | 132 kts | 249° |
| 2026-04-16 22:42 | 50.06263 | 8.68165 | 1701 ft | 130 kts | 249° |
| 2026-04-16 22:42 | 50.05949 | 8.66841 | 1506 ft | 130 kts | 249° |
| 2026-04-16 22:42 | 50.05639 | 8.65539 | 1346 ft | 130 kts | 249° |
| 2026-04-16 22:43 | 50.05327 | 8.64204 | 1150 ft | 132 kts | 251° |
| 2026-04-16 22:43 | 50.05006 | 8.62870 | 928 ft | 129 kts | 250° |
| 2026-04-16 22:43 | 50.04704 | 8.61565 | 751 ft | 130 kts | 252° |
| 2026-04-16 22:43 | 50.04383 | 8.60239 | 624 ft | 131 kts | 251° |
| 2026-04-16 22:44 | 50.04065 | 8.58900 | 415 ft | 133 kts | 251° |
| 2026-04-16 22:44 | 50.03758 | 8.57610 | 351 ft | 112 kts | 249° |
| 2026-04-16 22:44 | 50.03546 | 8.56723 | 348 ft | 64 kts | 250° |
| 2026-04-16 22:44 | 50.03432 | 8.56226 | 351 ft | 36 kts | 260° |
| 2026-04-16 22:45 | 50.03456 | 8.55891 | 346 ft | 29 kts | 280° |
| 2026-04-16 22:45 | 50.03515 | 8.55701 | 346 ft | 18 kts | 351° |
| 2026-04-16 22:45 | 50.03583 | 8.55845 | 348 ft | 18 kts | 69° |
| 2026-04-16 22:45 | 50.03627 | 8.56031 | 350 ft | 19 kts | 70° |
| 2026-04-16 22:46 | 50.03675 | 8.56232 | 351 ft | 20 kts | 70° |
| 2026-04-16 22:46 | 50.03725 | 8.56446 | 351 ft | 22 kts | 69° |
| 2026-04-16 22:46 | 50.03781 | 8.56673 | 352 ft | 23 kts | 70° |
| 2026-04-16 22:46 | 50.03838 | 8.56914 | 349 ft | 24 kts | 70° |
| 2026-04-16 22:47 | 50.03897 | 8.57161 | 353 ft | 25 kts | 69° |
| 2026-04-16 22:47 | 50.03959 | 8.57421 | 352 ft | 26 kts | 70° |
| 2026-04-16 22:47 | 50.04024 | 8.57689 | 346 ft | 27 kts | 70° |
| 2026-04-16 22:47 | 50.04090 | 8.57966 | 350 ft | 27 kts | 70° |
| 2026-04-16 22:48 | 50.04146 | 8.58140 | 349 ft | 16 kts | 38° |
| 2026-04-16 22:48 | 50.04253 | 8.58214 | 348 ft | 18 kts | 12° |
| 2026-04-16 22:48 | 50.04374 | 8.58159 | 349 ft | 19 kts | 340° |
| 2026-04-16 22:48 | 50.04496 | 8.58089 | 352 ft | 19 kts | 339° |
| 2026-04-16 22:49 | 50.04620 | 8.58017 | 349 ft | 20 kts | 340° |
| 2026-04-16 22:49 | 50.04711 | 8.57906 | 346 ft | 17 kts | 255° |
| 2026-04-16 22:49 | 50.04670 | 8.57730 | 354 ft | 18 kts | 250° |
| 2026-04-16 22:49 | 50.04625 | 8.57539 | 348 ft | 19 kts | 250° |
| 2026-04-16 22:50 | 50.04577 | 8.57341 | 349 ft | 20 kts | 250° |
| 2026-04-16 22:50 | 50.04523 | 8.57112 | 353 ft | 25 kts | 250° |
| 2026-04-16 22:50 | 50.04487 | 8.56926 | 346 ft | 13 kts | 279° |
| 2026-04-16 22:50 | 50.04565 | 8.56892 | 346 ft | 14 kts | 14° |
| 2026-04-16 22:51 | 50.04661 | 8.56943 | 352 ft | 16 kts | 24° |
| 2026-04-16 22:51 | 50.04765 | 8.57016 | 346 ft | 17 kts | 24° |
| 2026-04-16 22:51 | 50.04855 | 8.57079 | 346 ft | 7 kts | 23° |
| 2026-04-16 22:51 | 50.04905 | 8.57076 | 348 ft | 6 kts | 338° |
| 2026-04-16 22:52 | 50.04927 | 8.57073 | 349 ft | 2 kts | 36° |
| 2026-04-16 22:52 | 50.04922 | 8.57083 | 348 ft | 1 kts | 120° |
| 2026-04-16 22:52 | 50.04922 | 8.57091 | 347 ft | 1 kts | 94° |
| 2026-04-16 22:52 | 50.04922 | 8.57094 | 347 ft | 0 kts | 95° |